Time;durP1;ratioP1;P1;durP2;ratioP2;P2;SDS_P1;SDS_P2;PMS_P1;PMS_P2;Temp;Humidity;BMP_temperature;BMP_pressure;BME280_temperature;BME280_humidity;BME280_pressure;Samples;Min_cycle;Max_cycle;Signal;HPM_P1;HPM_P2
2022/06/06 00:00:13;;;;;;;1.65;0.90;;;;;;;;;;7330628;19;153590;-17
2022/06/06 00:02:49;;;;;;;4.30;1.42;;;;;;;;;;7328017;19;161801;-17
2022/06/06 00:05:20;;;;;;;7.72;1.30;;;;;;;;;;7329942;19;162601;-17
2022/06/06 00:07:52;;;;;;;3.70;1.30;;;;;;;;;;7330140;19;154081;-17
2022/06/06 00:10:24;;;;;;;2.10;1.10;;;;;;;;;;7329008;19;153633;-17
2022/06/06 00:12:55;;;;;;;3.67;1.08;;;;;;;;;;7328999;19;161794;-17
2022/06/06 00:15:32;;;;;;;5.13;1.23;;;;;;;;;;7328564;19;162566;-17
2022/06/06 00:18:04;;;;;;;2.97;1.20;;;;;;;;;;7330127;19;153899;-18
2022/06/06 00:20:35;;;;;;;4.72;1.20;;;;;;;;;;7329172;19;153567;-17
2022/06/06 00:23:07;;;;;;;2.20;1.00;;;;;;;;;;7325787;19;161734;-17
2022/06/06 00:25:38;;;;;;;3.30;1.23;;;;;;;;;;7329368;19;162575;-18
2022/06/06 00:28:10;;;;;;;4.13;1.27;;;;;;;;;;7330983;19;154132;-17
2022/06/06 00:30:43;;;;;;;1.17;0.90;;;;;;;;;;7328589;19;153571;-17
2022/06/06 00:35:59;;;;;;;1.88;1.00;;;;;;;;;;7329157;19;162474;-17
2022/06/06 00:38:31;;;;;;;2.30;1.07;;;;;;;;;;7329397;19;154063;-18
2022/06/06 00:41:02;;;;;;;1.45;0.90;;;;;;;;;;7329074;19;153489;-17
2022/06/06 00:43:34;;;;;;;4.38;1.20;;;;;;;;;;7327202;19;161814;-17
2022/06/06 00:46:11;;;;;;;2.25;1.00;;;;;;;;;;7328505;19;162707;-17
2022/06/06 00:48:44;;;;;;;2.22;1.17;;;;;;;;;;7329049;19;154212;-17
2022/06/06 00:51:17;;;;;;;2.55;0.90;;;;;;;;;;7330734;19;153662;-17
2022/06/06 00:53:53;;;;;;;3.95;1.10;;;;;;;;;;7325076;19;163241;-17
2022/06/06 00:56:30;;;;;;;1.98;1.00;;;;;;;;;;7328513;19;162369;-17
2022/06/06 00:59:04;;;;;;;3.15;0.98;;;;;;;;;;7328908;19;154137;-17
2022/06/06 01:01:39;;;;;;;1.55;1.10;;;;;;;;;;7328637;19;153515;-17
2022/06/06 01:04:12;;;;;;;0.75;0.75;;;;;;;;;;7328306;19;161934;-18
2022/06/06 01:06:46;;;;;;;4.10;1.08;;;;;;;;;;7328186;19;162454;-18
2022/06/06 01:09:19;;;;;;;1.38;1.13;;;;;;;;;;7328379;19;154138;-16
2022/06/06 01:11:54;;;;;;;1.33;0.95;;;;;;;;;;7328490;19;153473;-16
2022/06/06 01:14:28;;;;;;;3.33;1.17;;;;;;;;;;7331243;19;161877;-16
2022/06/06 01:17:07;;;;;;;1.15;0.85;;;;;;;;;;7327882;19;162305;-17
2022/06/06 01:19:54;;;;;;;2.38;1.00;;;;;;;;;;7328156;19;154159;-16
2022/06/06 01:23:05;;;;;;;2.58;1.00;;;;;;;;;;7327411;19;153487;-17
2022/06/06 01:25:56;;;;;;;1.10;0.98;;;;;;;;;;7325895;19;133940;-16
2022/06/06 01:28:46;;;;;;;3.25;1.10;;;;;;;;;;7327418;19;162603;-16
2022/06/06 01:31:21;;;;;;;0.95;0.82;;;;;;;;;;7327797;19;154337;-16
2022/06/06 01:33:55;;;;;;;1.45;1.35;;;;;;;;;;7332598;19;153491;-16
2022/06/06 01:36:29;;;;;;;0.77;0.70;;;;;;;;;;7334296;19;162087;-16
2022/06/06 01:39:03;;;;;;;3.97;0.80;;;;;;;;;;7334170;19;162451;-16
2022/06/06 01:41:43;;;;;;;1.63;1.15;;;;;;;;;;7334471;19;154027;-16
2022/06/06 01:44:25;;;;;;;2.15;0.90;;;;;;;;;;7333798;19;153551;-17
2022/06/06 01:46:57;;;;;;;2.40;0.85;;;;;;;;;;7333926;19;162136;-16
2022/06/06 01:49:30;;;;;;;1.10;1.00;;;;;;;;;;7333852;19;162673;-17
2022/06/06 01:52:03;;;;;;;0.80;0.80;;;;;;;;;;7333975;19;154091;-17
2022/06/06 01:54:35;;;;;;;0.82;0.82;;;;;;;;;;7334061;19;153543;-16
2022/06/06 01:57:08;;;;;;;1.13;1.02;;;;;;;;;;7333664;19;162673;-17
2022/06/06 01:59:42;;;;;;;1.00;0.90;;;;;;;;;;7333683;19;162535;-17
2022/06/06 02:02:14;;;;;;;1.38;0.90;;;;;;;;;;7333827;19;154024;-16
2022/06/06 02:04:46;;;;;;;1.75;1.20;;;;;;;;;;7331546;19;153664;-15
2022/06/06 02:07:18;;;;;;;0.93;0.90;;;;;;;;;;7333419;19;162036;-16
2022/06/06 02:09:49;;;;;;;0.80;0.80;;;;;;;;;;7333257;19;162495;-17
2022/06/06 02:12:20;;;;;;;0.85;0.80;;;;;;;;;;7333662;19;153960;-16
2022/06/06 02:14:54;;;;;;;1.40;1.20;;;;;;;;;;7336285;19;153810;-16
2022/06/06 02:17:27;;;;;;;0.90;0.90;;;;;;;;;;7333118;19;162380;-16
2022/06/06 02:19:59;;;;;;;1.00;0.90;;;;;;;;;;7332921;19;162468;-16
2022/06/06 02:22:30;;;;;;;3.78;0.85;;;;;;;;;;7333403;19;154804;-17
2022/06/06 02:25:02;;;;;;;2.90;0.90;;;;;;;;;;7330582;19;153545;-15
2022/06/06 02:27:33;;;;;;;1.33;1.00;;;;;;;;;;7334268;19;161578;-16
2022/06/06 02:30:12;;;;;;;1.55;0.80;;;;;;;;;;7331550;19;162567;-17
2022/06/06 02:32:43;;;;;;;2.42;1.08;;;;;;;;;;7333234;19;154063;-17
2022/06/06 02:35:17;;;;;;;1.02;0.70;;;;;;;;;;7332744;19;154207;-17
2022/06/06 02:37:49;;;;;;;1.35;0.95;;;;;;;;;;7332248;19;161843;-17
2022/06/06 02:40:24;;;;;;;0.90;0.90;;;;;;;;;;7331092;19;162454;-17
2022/06/06 02:42:55;;;;;;;;;;;;;;;;;;7333455;19;154209;-17
2022/06/06 02:45:29;;;;;;;0.90;0.90;;;;;;;;;;7331059;19;153403;-17
2022/06/06 02:48:03;;;;;;;1.45;0.98;;;;;;;;;;7332206;19;161797;-17
2022/06/06 02:50:35;;;;;;;1.15;0.70;;;;;;;;;;7336694;19;162387;-17
2022/06/06 02:53:06;;;;;;;1.10;1.00;;;;;;;;;;7331167;19;154052;-16
2022/06/06 02:55:39;;;;;;;1.30;0.80;;;;;;;;;;7332151;19;153377;-17
2022/06/06 02:58:10;;;;;;;;;;;;;;;;;;7331211;19;162071;-17
2022/06/06 03:00:44;;;;;;;0.80;0.80;;;;;;;;;;7331869;19;162463;-17
2022/06/06 03:03:15;;;;;;;2.40;1.17;;;;;;;;;;7331913;19;154143;-17
2022/06/06 03:06:01;;;;;;;1.13;0.90;;;;;;;;;;7331999;19;153567;-17
2022/06/06 03:08:47;;;;;;;0.75;0.70;;;;;;;;;;7331678;19;162022;-17
2022/06/06 03:11:29;;;;;;;0.80;0.80;;;;;;;;;;7330307;19;162170;-17
2022/06/06 03:14:21;;;;;;;1.67;0.97;;;;;;;;;;7334326;19;154044;-17
2022/06/06 03:23:03;;;;;;;1.25;1.00;;;;;;;;;;7331336;19;162954;-17
2022/06/06 03:25:43;;;;;;;1.08;0.93;;;;;;;;;;7327823;19;154099;-17
2022/06/06 03:28:22;;;;;;;1.17;1.08;;;;;;;;;;7331478;19;153573;-17
2022/06/06 03:31:03;;;;;;;1.02;0.98;;;;;;;;;;7331099;19;162034;-16
2022/06/06 03:33:45;;;;;;;0.80;0.80;;;;;;;;;;7330807;19;162413;-16
2022/06/06 03:36:24;;;;;;;1.10;0.70;;;;;;;;;;7331318;19;154092;-16
2022/06/06 03:39:05;;;;;;;0.88;0.88;;;;;;;;;;7331070;19;153470;-16
2022/06/06 03:41:41;;;;;;;1.45;1.35;;;;;;;;;;7330665;19;161759;-16
2022/06/06 03:44:24;;;;;;;1.25;1.00;;;;;;;;;;7332603;19;162495;-15
2022/06/06 03:47:06;;;;;;;0.93;0.93;;;;;;;;;;7331150;19;154418;-17
2022/06/06 03:49:55;;;;;;;3.47;0.93;;;;;;;;;;7330973;19;153418;-17
2022/06/06 03:52:32;;;;;;;1.58;1.00;;;;;;;;;;7329868;19;161800;-16
2022/06/06 03:55:12;;;;;;;1.30;0.90;;;;;;;;;;7328753;19;162403;-16
2022/06/06 03:57:46;;;;;;;4.07;0.90;;;;;;;;;;7330684;19;154056;-16
2022/06/06 04:00:18;;;;;;;0.85;0.85;;;;;;;;;;7330358;19;153613;-16
2022/06/06 04:02:51;;;;;;;1.50;0.85;;;;;;;;;;7330164;19;162061;-16
2022/06/06 04:05:26;;;;;;;0.88;0.88;;;;;;;;;;7328087;19;162437;-16
2022/06/06 04:08:00;;;;;;;1.60;0.90;;;;;;;;;;7330465;19;154608;-17
2022/06/06 04:10:38;;;;;;;1.02;0.82;;;;;;;;;;7330182;19;153817;-17
2022/06/06 04:13:24;;;;;;;2.38;0.88;;;;;;;;;;7330566;19;161894;-17
2022/06/06 04:16:09;;;;;;;1.02;0.80;;;;;;;;;;7329759;19;162722;-16
2022/06/06 04:18:56;;;;;;;0.85;0.85;;;;;;;;;;7329019;19;154113;-16
2022/06/06 04:21:40;;;;;;;1.10;1.00;;;;;;;;;;7330079;19;153586;-17
2022/06/06 04:24:26;;;;;;;1.00;0.90;;;;;;;;;;7329323;19;161821;-16
2022/06/06 04:27:08;;;;;;;0.70;0.70;;;;;;;;;;7328463;19;162788;-17
2022/06/06 04:29:46;;;;;;;1.08;0.90;;;;;;;;;;7329773;19;154141;-17
2022/06/06 04:32:23;;;;;;;0.73;0.73;;;;;;;;;;7329484;19;153436;-16
2022/06/06 04:35:02;;;;;;;1.58;1.00;;;;;;;;;;7329367;19;161945;-17
2022/06/06 04:37:41;;;;;;;1.55;0.88;;;;;;;;;;7329251;19;162228;-16
2022/06/06 04:40:19;;;;;;;0.80;0.70;;;;;;;;;;7329447;19;154262;-17
2022/06/06 04:42:57;;;;;;;1.30;0.90;;;;;;;;;;7333427;19;153552;-16
2022/06/06 04:45:37;;;;;;;1.98;0.90;;;;;;;;;;7327432;19;161794;-17
2022/06/06 04:48:09;;;;;;;1.00;0.95;;;;;;;;;;7328719;19;162409;-17
2022/06/06 04:50:44;;;;;;;0.90;0.85;;;;;;;;;;7329085;19;154271;-16
2022/06/06 04:53:23;;;;;;;1.10;1.00;;;;;;;;;;7327179;19;153496;-16
2022/06/06 04:55:57;;;;;;;1.00;0.90;;;;;;;;;;7328506;19;161945;-16
2022/06/06 04:58:31;;;;;;;0.82;0.82;;;;;;;;;;7328332;19;162494;-16
2022/06/06 05:01:04;;;;;;;1.38;1.20;;;;;;;;;;7328638;19;155097;-16
2022/06/06 05:03:36;;;;;;;1.10;0.70;;;;;;;;;;7328441;19;153659;-16
2022/06/06 05:06:49;;;;;;;0.93;0.93;;;;;;;;;;7326331;19;161811;-17
2022/06/06 05:09:51;;;;;;;0.80;0.80;;;;;;;;;;7333062;19;162459;-16
2022/06/06 05:12:37;;;;;;;0.68;0.68;;;;;;;;;;7334110;19;154083;-17
2022/06/06 05:15:29;;;;;;;1.00;1.00;;;;;;;;;;7339822;19;153790;-17
2022/06/06 05:18:15;;;;;;;0.97;0.97;;;;;;;;;;7334999;19;162016;-18
2022/06/06 05:20:59;;;;;;;0.90;0.90;;;;;;;;;;7334962;19;162667;-17
2022/06/06 05:23:52;;;;;;;1.40;1.00;;;;;;;;;;7335043;19;154035;-17
2022/06/06 05:26:40;;;;;;;0.80;0.80;;;;;;;;;;7332116;19;153534;-16
2022/06/06 05:29:41;;;;;;;0.90;0.90;;;;;;;;;;7334462;19;162235;-17
2022/06/06 05:32:32;;;;;;;0.75;0.75;;;;;;;;;;7334299;19;162286;-17
2022/06/06 05:35:10;;;;;;;1.08;0.88;;;;;;;;;;7333269;19;154203;-17
2022/06/06 05:37:50;;;;;;;0.90;0.90;;;;;;;;;;7334541;19;153471;-17
2022/06/06 05:40:28;;;;;;;0.80;0.80;;;;;;;;;;7334190;19;161372;-17
2022/06/06 05:43:15;;;;;;;1.95;0.80;;;;;;;;;;7334477;19;162573;-17
2022/06/06 05:45:57;;;;;;;0.70;0.70;;;;;;;;;;7333249;19;153977;-17
2022/06/06 05:48:59;;;;;;;0.90;0.90;;;;;;;;;;7334011;19;153639;-16
2022/06/06 05:51:44;;;;;;;0.90;0.90;;;;;;;;;;7333377;19;162139;-17
2022/06/06 05:54:32;;;;;;;0.80;0.80;;;;;;;;;;7331436;19;162369;-17
2022/06/06 05:57:35;;;;;;;1.13;1.02;;;;;;;;;;7334097;19;153991;-17
2022/06/06 06:00:19;;;;;;;0.90;0.90;;;;;;;;;;7334252;19;153506;-17
2022/06/06 06:03:13;;;;;;;0.80;0.80;;;;;;;;;;7333450;19;162225;-17
2022/06/06 06:05:56;;;;;;;0.98;0.90;;;;;;;;;;7332653;19;162409;-18
2022/06/06 06:08:33;;;;;;;;;;;;;;;;;;7334456;19;154083;-17
2022/06/06 06:11:15;;;;;;;0.90;0.90;;;;;;;;;;7334015;19;153462;-17
2022/06/06 06:14:00;;;;;;;0.90;0.90;;;;;;;;;;7335037;19;161992;-17
2022/06/06 06:16:39;;;;;;;1.23;0.80;;;;;;;;;;7332894;19;162533;-17
2022/06/06 06:19:12;;;;;;;0.70;0.70;;;;;;;;;;7330751;19;154039;-17
2022/06/06 06:21:47;;;;;;;0.93;0.93;;;;;;;;;;7333489;19;153532;-17
2022/06/06 06:24:22;;;;;;;0.88;0.88;;;;;;;;;;7331560;19;161850;-17
2022/06/06 06:26:59;;;;;;;1.23;1.10;;;;;;;;;;7330926;19;162674;-17
2022/06/06 06:29:30;;;;;;;1.52;1.10;;;;;;;;;;7334859;19;154309;-18
2022/06/06 06:32:21;;;;;;;0.93;0.93;;;;;;;;;;7333095;19;153480;-17
2022/06/06 06:35:03;;;;;;;1.00;1.00;;;;;;;;;;7332527;19;162009;-17
2022/06/06 06:37:51;;;;;;;1.20;1.17;;;;;;;;;;7335409;19;162481;-17
2022/06/06 06:40:42;;;;;;;1.00;1.00;;;;;;;;;;7331645;19;154160;-17
2022/06/06 06:43:21;;;;;;;0.90;0.90;;;;;;;;;;7333713;19;153448;-17
2022/06/06 06:45:56;;;;;;;1.20;1.10;;;;;;;;;;7330712;19;162004;-17
2022/06/06 06:48:35;;;;;;;1.23;1.13;;;;;;;;;;7332306;19;162400;-17
2022/06/06 06:51:14;;;;;;;1.38;1.05;;;;;;;;;;7332771;19;154107;-17
2022/06/06 06:54:06;;;;;;;1.20;1.10;;;;;;;;;;7330545;19;153556;-17
2022/06/06 06:56:49;;;;;;;0.85;0.85;;;;;;;;;;7331840;19;161905;-17
2022/06/06 06:59:33;;;;;;;1.15;1.05;;;;;;;;;;7331757;19;162630;-17
2022/06/06 07:11:19;;;;;;;0.85;0.82;;;;;;;;;;7331366;19;162560;-16
2022/06/06 07:14:06;;;;;;;0.95;0.95;;;;;;;;;;7331524;19;154118;-16
2022/06/06 07:16:39;;;;;;;8.15;1.85;;;;;;;;;;7331625;19;153528;-16
2022/06/06 07:19:14;;;;;;;2.58;1.67;;;;;;;;;;7330714;19;161935;-17
2022/06/06 07:21:49;;;;;;;2.25;2.05;;;;;;;;;;7331255;19;162301;-17
2022/06/06 07:24:23;;;;;;;2.47;1.52;;;;;;;;;;7331671;19;154511;-16
2022/06/06 07:26:55;;;;;;;1.85;1.75;;;;;;;;;;7330528;19;153530;-17
2022/06/06 07:29:26;;;;;;;3.20;1.75;;;;;;;;;;7331148;19;161940;-17
2022/06/06 07:32:16;;;;;;;6.85;1.95;;;;;;;;;;7330202;19;162532;-17
2022/06/06 07:35:02;;;;;;;1.83;1.63;;;;;;;;;;7331495;19;153958;-18
2022/06/06 07:37:49;;;;;;;2.47;1.80;;;;;;;;;;7331238;19;153550;-17
2022/06/06 07:40:34;;;;;;;2.58;1.45;;;;;;;;;;7331053;19;162061;-17
2022/06/06 07:43:21;;;;;;;2.03;1.75;;;;;;;;;;7331163;19;162370;-18
2022/06/06 07:45:56;;;;;;;2.28;1.70;;;;;;;;;;7330182;19;154053;-17
2022/06/06 07:48:51;;;;;;;6.00;2.28;;;;;;;;;;7328844;19;153621;-17
2022/06/06 07:51:33;;;;;;;6.03;2.50;;;;;;;;;;7330921;19;162006;-18
2022/06/06 07:54:19;;;;;;;5.95;2.20;;;;;;;;;;7328955;19;162446;-17
2022/06/06 07:56:58;;;;;;;5.68;2.60;;;;;;;;;;7330142;19;153851;-17
2022/06/06 07:59:41;;;;;;;3.28;1.90;;;;;;;;;;7333417;19;153613;-17
2022/06/06 08:02:31;;;;;;;2.22;1.95;;;;;;;;;;7330431;19;161792;-18
2022/06/06 08:05:15;;;;;;;3.17;1.80;;;;;;;;;;7329073;19;162484;-17
2022/06/06 08:07:53;;;;;;;3.42;2.00;;;;;;;;;;7329260;19;154261;-17
2022/06/06 08:10:36;;;;;;;1.95;1.52;;;;;;;;;;7330459;19;153720;-15
2022/06/06 08:13:32;;;;;;;2.15;1.90;;;;;;;;;;7330335;19;161876;-16
2022/06/06 08:16:23;;;;;;;2.10;1.90;;;;;;;;;;7330103;19;162330;-16
2022/06/06 08:19:11;;;;;;;4.80;2.45;;;;;;;;;;7333566;19;154198;-16
2022/06/06 08:21:46;;;;;;;3.25;2.30;;;;;;;;;;7332434;19;154068;-16
2022/06/06 08:24:19;;;;;;;;;;;;;;;;;;7330366;19;162062;-16
2022/06/06 08:27:10;;;;;;;3.97;1.77;;;;;;;;;;7329222;19;162635;-17
2022/06/06 08:29:43;;;;;;;3.78;2.15;;;;;;;;;;7334446;19;154106;-16
2022/06/06 08:32:15;;;;;;;2.67;1.98;;;;;;;;;;7329910;19;153643;-17
2022/06/06 08:34:47;;;;;;;2.07;1.87;;;;;;;;;;7330356;19;162179;-17
2022/06/06 08:37:38;;;;;;;2.13;1.77;;;;;;;;;;7328272;19;162619;-16
2022/06/06 08:40:30;;;;;;;5.15;2.15;;;;;;;;;;7329570;19;154409;-16
2022/06/06 08:43:13;;;;;;;4.40;2.33;;;;;;;;;;7327294;19;153442;-16
2022/06/06 08:45:55;;;;;;;3.20;2.00;;;;;;;;;;7329054;19;161862;-17
2022/06/06 08:48:43;;;;;;;6.28;2.40;;;;;;;;;;7327055;19;162501;-16
2022/06/06 08:51:27;;;;;;;2.75;2.00;;;;;;;;;;7328850;19;154188;-17
2022/06/06 08:54:27;;;;;;;7.20;2.38;;;;;;;;;;7326256;19;153788;-17
2022/06/06 08:57:22;;;;;;;2.53;2.17;;;;;;;;;;7327292;19;162148;-16
2022/06/06 09:00:27;;;;;;;3.65;2.03;;;;;;;;;;7327386;19;162316;-17
2022/06/06 09:03:30;;;;;;;3.35;2.20;;;;;;;;;;7328855;19;154239;-17
2022/06/06 09:06:34;;;;;;;6.15;1.98;;;;;;;;;;7328942;19;153688;-16
2022/06/06 09:09:44;;;;;;;2.78;1.65;;;;;;;;;;7325187;19;161829;-16
2022/06/06 09:12:51;;;;;;;2.42;1.55;;;;;;;;;;7327509;19;162476;-16
2022/06/06 09:16:08;;;;;;;6.00;2.10;;;;;;;;;;7326400;19;154111;-16
2022/06/06 09:19:11;;;;;;;1.88;1.77;;;;;;;;;;7328566;19;153523;-17
2022/06/06 09:22:07;;;;;;;2.33;1.63;;;;;;;;;;7328154;19;161891;-18
2022/06/06 09:25:01;;;;;;;3.17;1.73;;;;;;;;;;7327888;19;162797;-17
2022/06/06 09:28:11;;;;;;;1.60;1.50;;;;;;;;;;7327729;19;154191;-17
2022/06/06 09:31:11;;;;;;;2.00;1.90;;;;;;;;;;7328023;19;153499;-17
2022/06/06 09:34:22;;;;;;;2.45;1.80;;;;;;;;;;7327660;19;162004;-17
2022/06/06 09:37:07;;;;;;;3.30;1.83;;;;;;;;;;7328361;19;162566;-16
2022/06/06 09:39:56;;;;;;;5.65;1.83;;;;;;;;;;7326697;19;154629;-17
2022/06/06 09:42:40;;;;;;;3.40;1.88;;;;;;;;;;7327749;19;153540;-17
2022/06/06 09:45:31;;;;;;;2.58;2.00;;;;;;;;;;7327315;19;162128;-17
2022/06/06 09:48:50;;;;;;;1.98;1.88;;;;;;;;;;7326742;19;162569;-17
2022/06/06 09:51:49;;;;;;;2.00;1.80;;;;;;;;;;7327411;19;154125;-17
2022/06/06 10:01:18;;;;;;;2.13;1.83;;;;;;;;;;7333867;19;162139;-17
2022/06/06 10:04:24;;;;;;;2.25;1.88;;;;;;;;;;7334328;19;154255;-17
2022/06/06 10:07:23;;;;;;;1.90;1.80;;;;;;;;;;7333825;19;153668;-17
2022/06/06 10:10:12;;;;;;;2.17;1.98;;;;;;;;;;7331161;19;161876;-17
2022/06/06 10:13:03;;;;;;;2.20;1.70;;;;;;;;;;7333537;19;162450;-17
2022/06/06 10:16:06;;;;;;;1.88;1.77;;;;;;;;;;7333727;19;154148;-17
2022/06/06 10:18:58;;;;;;;2.10;1.83;;;;;;;;;;7332991;19;153737;-17
2022/06/06 10:21:58;;;;;;;1.92;1.70;;;;;;;;;;7333306;19;161553;-15
2022/06/06 10:25:01;;;;;;;2.28;1.83;;;;;;;;;;7331304;19;162937;-16
2022/06/06 10:27:48;;;;;;;2.45;1.95;;;;;;;;;;7337840;19;154608;-16
2022/06/06 10:30:22;;;;;;;3.42;1.90;;;;;;;;;;7332075;19;153767;-16
2022/06/06 10:33:20;;;;;;;2.30;2.08;;;;;;;;;;7332869;19;162459;-15
2022/06/06 10:36:02;;;;;;;5.43;1.95;;;;;;;;;;7332780;19;162334;-21
2022/06/06 10:38:58;;;;;;;3.45;2.00;;;;;;;;;;7333198;19;154084;-16
2022/06/06 10:41:46;;;;;;;2.25;2.10;;;;;;;;;;7332679;19;153694;-16
2022/06/06 10:44:38;;;;;;;3.63;2.17;;;;;;;;;;7332425;19;161760;-17
2022/06/06 10:47:22;;;;;;;2.50;2.08;;;;;;;;;;7330968;19;162500;-16
2022/06/06 10:50:01;;;;;;;1.95;1.77;;;;;;;;;;7330945;19;154292;-17
2022/06/06 10:52:56;;;;;;;2.50;1.77;;;;;;;;;;7331951;19;153812;-16
2022/06/06 10:56:09;;;;;;;2.35;1.83;;;;;;;;;;7330783;19;161801;-17
2022/06/06 10:59:13;;;;;;;3.72;1.98;;;;;;;;;;7332136;19;162562;-17
2022/06/06 11:02:10;;;;;;;2.38;2.17;;;;;;;;;;7332622;19;154052;-17
2022/06/06 11:05:10;;;;;;;1.80;1.70;;;;;;;;;;7331959;19;154017;-16
2022/06/06 11:08:04;;;;;;;1.90;1.80;;;;;;;;;;7331860;19;161597;-16
2022/06/06 11:11:01;;;;;;;3.38;1.85;;;;;;;;;;7329369;19;162392;-16
2022/06/06 11:14:05;;;;;;;3.05;1.90;;;;;;;;;;7332255;19;154034;-16
2022/06/06 11:17:05;;;;;;;2.42;2.10;;;;;;;;;;7332010;19;153448;-16
2022/06/06 11:20:11;;;;;;;5.93;2.40;;;;;;;;;;7331673;19;161880;-18
2022/06/06 11:22:44;;;;;;;3.22;2.10;;;;;;;;;;7331673;19;162355;-17
2022/06/06 11:25:19;;;;;;;2.55;2.35;;;;;;;;;;7331925;19;153807;-17
2022/06/06 11:28:11;;;;;;;2.25;1.88;;;;;;;;;;7331781;19;153560;-17
2022/06/06 11:31:12;;;;;;;3.28;2.17;;;;;;;;;;7327941;19;161913;-17
2022/06/06 11:34:16;;;;;;;2.60;2.40;;;;;;;;;;7329390;19;162609;-17
2022/06/06 11:37:34;;;;;;;3.75;2.20;;;;;;;;;;7329064;19;154182;-18
2022/06/06 11:40:38;;;;;;;2.30;2.10;;;;;;;;;;7328156;19;153737;-18
2022/06/06 11:43:38;;;;;;;2.60;2.10;;;;;;;;;;7331134;19;162085;-17
2022/06/06 11:46:31;;;;;;;2.58;2.03;;;;;;;;;;7330952;19;162335;-17
2022/06/06 11:49:29;;;;;;;2.20;2.10;;;;;;;;;;7330615;19;154124;-18
2022/06/06 11:52:32;;;;;;;3.30;2.03;;;;;;;;;;7329780;19;153566;-17
2022/06/06 11:55:40;;;;;;;2.30;2.10;;;;;;;;;;7330503;19;161943;-17
2022/06/06 11:58:40;;;;;;;3.33;2.28;;;;;;;;;;7329928;19;162478;-17
2022/06/06 12:01:39;;;;;;;2.45;2.20;;;;;;;;;;7330964;19;154271;-17
2022/06/06 12:04:25;;;;;;;2.30;2.10;;;;;;;;;;7331171;19;153227;-17
2022/06/06 12:07:18;;;;;;;2.60;2.22;;;;;;;;;;7329158;19;161973;-17
2022/06/06 12:09:59;;;;;;;4.03;2.17;;;;;;;;;;7329437;19;162292;-16
2022/06/06 12:12:49;;;;;;;4.43;2.17;;;;;;;;;;7333260;19;154172;-16
2022/06/06 12:15:43;;;;;;;3.22;2.20;;;;;;;;;;7330972;19;153546;-16
2022/06/06 12:18:39;;;;;;;3.85;2.30;;;;;;;;;;7326450;19;162210;-16
2022/06/06 12:21:35;;;;;;;6.80;2.15;;;;;;;;;;7329265;19;162630;-16
2022/06/06 12:24:25;;;;;;;3.28;1.92;;;;;;;;;;7329825;19;154012;-18
2022/06/06 12:27:25;;;;;;;3.03;2.45;;;;;;;;;;7333011;19;153639;-17
2022/06/06 12:30:24;;;;;;;4.55;2.17;;;;;;;;;;7328463;19;161807;-17
2022/06/06 12:33:02;;;;;;;5.35;2.58;;;;;;;;;;7329419;19;162398;-18
2022/06/06 12:35:50;;;;;;;3.90;2.47;;;;;;;;;;7329777;19;154078;-16
2022/06/06 12:38:30;;;;;;;2.08;1.85;;;;;;;;;;7330533;19;153553;-18
2022/06/06 12:41:15;;;;;;;2.22;1.90;;;;;;;;;;7329035;19;162064;-17
2022/06/06 12:43:59;;;;;;;2.72;2.25;;;;;;;;;;7328886;19;162739;-17
2022/06/06 12:47:03;;;;;;;4.28;2.05;;;;;;;;;;7329562;19;154051;-17
2022/06/06 12:49:59;;;;;;;5.13;2.42;;;;;;;;;;7328993;19;153814;-17
2022/06/06 12:52:45;;;;;;;4.00;2.05;;;;;;;;;;7328136;19;161920;-17
2022/06/06 12:55:33;;;;;;;4.38;1.83;;;;;;;;;;7328842;19;162753;-17
2022/06/06 12:58:44;;;;;;;2.35;2.15;;;;;;;;;;7329130;19;154106;-17
2022/06/06 13:01:41;;;;;;;5.05;2.90;;;;;;;;;;7329085;19;153608;-17
2022/06/06 13:04:39;;;;;;;2.20;1.80;;;;;;;;;;7328741;19;161800;-17
2022/06/06 13:07:26;;;;;;;8.38;3.50;;;;;;;;;;7328123;19;162361;-18
2022/06/06 13:10:15;;;;;;;6.43;3.13;;;;;;;;;;7328150;19;154342;-17
2022/06/06 13:13:26;;;;;;;7.30;4.40;;;;;;;;;;7328603;19;153596;-17
2022/06/06 13:16:05;;;;;;;7.47;3.65;;;;;;;;;;7328226;19;161881;-16
2022/06/06 13:18:56;;;;;;;21.08;11.93;;;;;;;;;;7328053;19;162366;-17
2022/06/06 13:21:42;;;;;;;27.23;13.23;;;;;;;;;;7327867;19;154326;-17
2022/06/06 13:24:51;;;;;;;73.25;34.22;;;;;;;;;;7328384;19;153840;-17
2022/06/06 13:27:29;;;;;;;139.07;64.40;;;;;;;;;;7327620;19;162112;-17
2022/06/06 13:30:21;;;;;;;202.43;104.93;;;;;;;;;;7332818;19;162444;-17
2022/06/06 13:33:34;;;;;;;193.70;102.68;;;;;;;;;;7334853;19;154381;-17
2022/06/06 13:36:17;;;;;;;188.48;92.82;;;;;;;;;;7334676;19;153938;-17
2022/06/06 13:39:03;;;;;;;165.35;86.75;;;;;;;;;;7333012;19;162054;-17
2022/06/06 13:41:47;;;;;;;167.32;86.85;;;;;;;;;;7334411;19;162673;-17
2022/06/06 13:45:06;;;;;;;158.77;82.28;;;;;;;;;;7334620;19;154264;-17
2022/06/06 13:48:01;;;;;;;150.90;77.30;;;;;;;;;;7333230;19;153891;-17
2022/06/06 13:50:40;;;;;;;160.77;82.18;;;;;;;;;;7333322;19;161841;-17
2022/06/06 13:53:40;;;;;;;154.00;82.05;;;;;;;;;;7332543;19;162686;-17
2022/06/06 13:56:26;;;;;;;150.07;81.88;;;;;;;;;;7333134;19;154268;-16
2022/06/06 13:59:04;;;;;;;153.68;79.60;;;;;;;;;;7334154;19;153811;-17
2022/06/06 14:01:47;;;;;;;155.18;83.00;;;;;;;;;;7333663;19;162030;-17
2022/06/06 14:04:32;;;;;;;;;;;;;;;;;;7334113;19;162371;-16
2022/06/06 14:07:27;;;;;;;141.00;76.03;;;;;;;;;;7333876;19;154211;-16
2022/06/06 14:10:08;;;;;;;142.55;75.75;;;;;;;;;;7333797;19;153677;-17
2022/06/06 14:12:53;;;;;;;142.15;76.32;;;;;;;;;;7331074;19;161829;-17
2022/06/06 14:15:26;;;;;;;142.10;75.88;;;;;;;;;;7333356;19;162363;-17
2022/06/06 14:18:01;;;;;;;128.23;70.60;;;;;;;;;;7333607;19;154103;-16
2022/06/06 14:20:39;;;;;;;132.82;73.28;;;;;;;;;;7333962;19;153915;-16
2022/06/06 14:23:26;;;;;;;130.13;70.57;;;;;;;;;;7335380;19;161809;-17
2022/06/06 14:26:03;;;;;;;125.88;67.35;;;;;;;;;;7333045;19;162359;-17
2022/06/06 14:28:37;;;;;;;129.45;67.72;;;;;;;;;;7333577;19;154112;-17
2022/06/06 14:31:25;;;;;;;127.40;69.47;;;;;;;;;;7332566;19;154390;-17
2022/06/06 14:33:58;;;;;;;129.82;67.72;;;;;;;;;;7333064;19;162221;-17
2022/06/06 14:36:31;;;;;;;130.95;70.20;;;;;;;;;;7331372;19;162431;-17
2022/06/06 14:39:05;;;;;;;122.53;64.82;;;;;;;;;;7333978;19;153870;-17
2022/06/06 14:41:47;;;;;;;122.32;65.45;;;;;;;;;;7330556;19;153626;-17
2022/06/06 14:44:31;;;;;;;106.53;59.58;;;;;;;;;;7332518;19;161942;-17
2022/06/06 14:47:13;;;;;;;117.82;60.05;;;;;;;;;;7332317;19;162311;-17
2022/06/06 14:50:45;;;;;;;113.55;59.55;;;;;;;;;;7332957;19;154219;-16
2022/06/06 14:52:41;;;;;;;109.15;57.00;;;;;;;;;;7330136;19;153684;-16
2022/06/06 14:55:12;;;;;;;96.45;57.70;;;;;;;;;;7332103;19;161897;-16
2022/06/06 14:57:46;;;;;;;107.82;58.72;;;;;;;;;;7331924;19;162270;-16
2022/06/06 15:00:34;;;;;;;105.63;59.33;;;;;;;;;;7332205;19;154825;-17
2022/06/06 15:03:10;;;;;;;101.05;56.95;;;;;;;;;;7331741;19;153719;-19
2022/06/06 15:05:41;;;;;;;104.75;55.88;;;;;;;;;;7330449;19;161670;-17
2022/06/06 15:08:18;;;;;;;99.70;55.35;;;;;;;;;;7331804;19;162152;-17
2022/06/06 15:10:52;;;;;;;96.80;53.55;;;;;;;;;;7331976;19;153997;-16
2022/06/06 15:13:26;;;;;;;103.43;55.33;;;;;;;;;;7331742;19;153583;-16
2022/06/06 15:16:00;;;;;;;93.03;50.47;;;;;;;;;;7330989;19;161584;-16
2022/06/06 15:18:34;;;;;;;96.07;52.33;;;;;;;;;;7331034;19;162524;-17
2022/06/06 15:21:08;;;;;;;86.72;48.65;;;;;;;;;;7331303;19;154002;-16
2022/06/06 15:23:44;;;;;;;89.45;49.55;;;;;;;;;;7331215;19;153636;-16
2022/06/06 15:26:30;;;;;;;86.28;50.58;;;;;;;;;;7331120;19;162247;-16
2022/06/06 15:29:11;;;;;;;89.57;49.55;;;;;;;;;;7331190;19;162590;-16
2022/06/06 15:32:03;;;;;;;89.28;46.35;;;;;;;;;;7329216;19;154260;-16
2022/06/06 15:34:48;;;;;;;85.50;46.45;;;;;;;;;;7330998;19;153678;-19
2022/06/06 15:37:31;;;;;;;78.75;45.13;;;;;;;;;;7330685;19;161819;-17
2022/06/06 15:40:13;;;;;;;83.40;45.15;;;;;;;;;;7330653;19;162484;-17
2022/06/06 15:42:47;;;;;;;83.43;44.88;;;;;;;;;;7330801;19;154082;-16
2022/06/06 15:45:45;;;;;;;78.93;43.22;;;;;;;;;;7330749;19;153880;-19
2022/06/06 15:48:28;;;;;;;77.82;44.00;;;;;;;;;;7330637;19;161998;-16
2022/06/06 15:51:12;;;;;;;81.53;42.77;;;;;;;;;;7330688;19;162365;-17
2022/06/06 15:54:10;;;;;;;76.32;40.53;;;;;;;;;;7328035;19;154727;-17
2022/06/06 15:56:50;;;;;;;78.80;41.88;;;;;;;;;;7330833;19;153514;-18
2022/06/06 15:59:41;;;;;;;73.32;40.65;;;;;;;;;;7330411;19;161888;-16
2022/06/06 16:02:35;;;;;;;76.13;41.50;;;;;;;;;;7330162;19;162494;-16
2022/06/06 16:05:17;;;;;;;74.70;39.25;;;;;;;;;;7330031;19;154136;-16
2022/06/06 16:08:14;;;;;;;71.10;38.55;;;;;;;;;;7330567;19;153778;-17
2022/06/06 16:10:59;;;;;;;72.03;38.33;;;;;;;;;;7330211;19;161780;-16
2022/06/06 16:13:57;;;;;;;70.30;36.15;;;;;;;;;;7327430;19;162503;-16
2022/06/06 16:16:35;;;;;;;68.93;37.65;;;;;;;;;;7329664;19;154250;-17
2022/06/06 16:19:23;;;;;;;61.53;36.63;;;;;;;;;;7330143;19;153497;-17
2022/06/06 16:22:00;;;;;;;62.42;34.40;;;;;;;;;;7331391;19;161997;-17
2022/06/06 16:24:38;;;;;;;62.80;35.70;;;;;;;;;;7329254;19;162626;-17
2022/06/06 16:27:17;;;;;;;59.65;34.05;;;;;;;;;;7330175;19;154127;-17
2022/06/06 16:29:54;;;;;;;58.72;30.98;;;;;;;;;;7329984;19;153671;-17